Terminal Aerodrome Forecast
Issued by NWS Charleston, WV

Current Version | Previous Version | Graphics & Text | Print | Product List | Glossary On
Versions: 1 2 3 4 5 6 7 8 9 10 11 12 13 14 15 16 17 18 19 20 21 22 23 24 25
000
FTUS41 KRLX 281742
TAFCRW
TAF
KCRW 281742Z 2818/2918 26011G18KT P6SM BKN040
     FM290000 27004KT P6SM FEW025
     FM290500 00000KT 4SM BR FEW025
     FM290700 00000KT 2SM BR FEW025
     FM290800 00000KT 1/2SM FG VV001
     FM291130 00000KT 4SM BR SCT002
     FM291230 VRB03KT P6SM BKN100=

USA.gov is the U.S. government's official web portal to all federal, state and local government web resources and services.